createdAt,value
2018-12-15T09:50:45.374Z,101415.80
2018-12-15T10:00:47.965Z,101401.25
2018-12-15T10:10:52.471Z,101399.87
2018-12-15T10:29:27.467Z,101394.49
2018-12-15T10:39:31.003Z,101390.57
2018-12-15T10:49:34.501Z,101369.58
2018-12-15T11:09:04.599Z,101358.41
2018-12-15T11:19:08.915Z,101350.44
2018-12-15T11:29:11.911Z,101349.95
2018-12-15T11:39:15.027Z,101349.71
2018-12-15T11:49:18.192Z,101344.30
2018-12-15T11:59:21.172Z,101335.64
2018-12-15T12:09:25.575Z,101321.27
2018-12-15T12:19:29.731Z,101306.62
2018-12-15T12:29:33.884Z,101309.17
2018-12-15T12:39:38.055Z,101304.84
2018-12-15T12:49:41.204Z,101300.92
2018-12-15T12:59:44.287Z,101306.31
2018-12-15T13:09:49.426Z,101296.41
2018-12-15T13:19:52.554Z,101300.88
2018-12-15T13:29:55.754Z,101289.45
2018-12-15T13:39:58.811Z,101298.20
2018-12-15T13:50:01.963Z,101299.84
2018-12-15T14:00:05.230Z,101304.32
2018-12-15T14:10:09.327Z,101312.45
2018-12-15T14:15:20.517Z,101317.59
2018-12-15T14:18:23.775Z,101314.72
2018-12-15T14:21:26.946Z,101313.47
2018-12-15T14:24:30.190Z,101316.88
2018-12-15T14:27:33.285Z,101319.38
2018-12-15T14:30:38.345Z,101314.16
2018-12-15T14:33:41.458Z,101315.02
2018-12-15T14:36:44.447Z,101305.71
2018-12-15T14:39:47.625Z,101304.67
2018-12-15T14:42:50.803Z,101298.20
2018-12-15T14:45:53.939Z,101297.39
2018-12-15T14:48:57.033Z,101303.00
2018-12-15T14:52:00.252Z,101300.35
2018-12-15T14:55:03.671Z,101294.69
2018-12-15T14:58:06.780Z,101297.73
2018-12-15T15:01:09.815Z,101292.92
2018-12-15T15:04:12.974Z,101288.30
2018-12-15T15:07:16.071Z,101285.64
2018-12-15T15:13:21.297Z,101277.81
2018-12-15T15:16:25.754Z,101271.72
2018-12-15T15:19:29.924Z,101269.14
2018-12-15T15:22:33.163Z,101267.40
2018-12-15T15:25:38.315Z,101261.38
2018-12-15T15:28:41.391Z,101263.80
2018-12-15T15:31:44.502Z,101259.74
2018-12-15T15:34:47.564Z,101255.69
2018-12-15T15:37:50.658Z,101259.13
2018-12-15T15:40:53.810Z,101262.97
2018-12-15T15:43:57.048Z,101260.52
2018-12-15T15:47:00.147Z,101265.09
2018-12-15T15:50:03.277Z,101257.58
2018-12-15T15:53:07.266Z,101256.95
2018-12-15T15:56:10.351Z,101249.66
2018-12-15T15:59:13.435Z,101254.08
2018-12-15T16:02:16.528Z,101253.11
2018-12-15T16:05:19.609Z,101246.06
2018-12-15T16:08:23.907Z,101243.67
2018-12-15T16:11:29.595Z,101241.50
2018-12-15T16:14:32.571Z,101241.41
2018-12-15T16:17:35.978Z,101238.41
2018-12-15T16:20:43.197Z,101236.30
2018-12-15T16:23:44.095Z,101233.73
2018-12-15T16:26:47.290Z,101234.97
2018-12-15T16:29:51.315Z,101226.16
2018-12-15T16:32:54.516Z,101231.56
2018-12-15T16:35:58.694Z,101236.90
2018-12-15T16:39:02.869Z,101226.63
2018-12-15T16:42:05.995Z,101229.45
2018-12-15T16:45:10.811Z,101225.47
2018-12-15T16:48:15.971Z,101219.45
2018-12-15T16:51:20.118Z,101228.51
2018-12-15T16:54:23.195Z,101220.76
2018-12-15T16:57:26.255Z,101221.06
2018-12-15T17:00:29.387Z,101208.80
2018-12-15T17:03:36.020Z,101217.50
2018-12-15T17:06:39.528Z,101211.75
2018-12-15T17:09:45.518Z,101211.00
2018-12-15T17:12:49.559Z,101215.55
2018-12-15T17:15:52.784Z,101208.73
2018-12-15T17:18:56.218Z,101203.52
2018-12-15T17:21:59.379Z,101209.22
2018-12-15T17:25:02.730Z,101204.50
2018-12-15T17:28:06.245Z,101207.96
2018-12-15T17:31:09.645Z,101201.62
2018-12-15T17:34:12.759Z,101191.01
2018-12-15T17:37:16.115Z,101190.80
2018-12-15T17:40:20.782Z,101189.12
2018-12-15T17:43:23.922Z,101184.17
2018-12-15T17:46:26.926Z,101181.92
2018-12-15T17:49:29.975Z,101178.30
2018-12-15T17:52:32.930Z,101176.00
2018-12-15T17:55:36.103Z,101178.50
2018-12-15T17:58:39.182Z,101173.95
2018-12-15T18:01:44.359Z,101167.22
2018-12-15T18:04:47.411Z,101167.91
2018-12-15T18:07:50.516Z,101159.02
2018-12-15T18:10:53.494Z,101156.23
2018-12-15T18:13:56.438Z,101163.66
2018-12-15T18:16:59.591Z,101158.52
2018-12-15T18:20:02.593Z,101152.67
2018-12-15T18:23:05.595Z,101150.69
2018-12-15T18:29:21.068Z,101151.23
2018-12-15T18:32:24.053Z,101144.11
2018-12-15T18:35:27.126Z,101141.06
2018-12-15T18:38:30.227Z,101143.16
2018-12-15T18:41:33.583Z,101132.06
2018-12-15T18:44:36.636Z,101129.13
2018-12-15T18:47:39.815Z,101123.05
2018-12-15T18:50:42.795Z,101114.89
2018-12-15T18:53:46.023Z,101119.47
2018-12-15T18:56:49.259Z,101114.89
2018-12-15T18:59:56.483Z,101110.53
2018-12-15T19:02:59.503Z,101117.17
2018-12-15T19:06:04.821Z,101112.23
2018-12-15T19:09:09.021Z,101105.77
2018-12-15T19:12:12.007Z,101108.24
2018-12-15T19:15:15.203Z,101099.53
2018-12-15T19:18:18.196Z,101105.31
2018-12-15T19:21:23.113Z,101101.78
2018-12-15T19:24:26.526Z,101099.80
2018-12-15T19:27:29.509Z,101099.72
2018-12-15T19:30:32.778Z,101099.34
2018-12-15T19:33:36.016Z,101090.59
2018-12-15T19:36:39.146Z,101083.70
2018-12-15T19:39:44.039Z,101077.30
2018-12-15T19:42:47.112Z,101080.70
2018-12-15T19:45:52.308Z,101070.95
2018-12-15T19:48:56.312Z,101072.08
2018-12-15T19:51:59.379Z,101065.36
2018-12-15T19:55:03.542Z,101063.06
2018-12-15T19:58:06.875Z,101063.44
2018-12-15T20:01:10.035Z,101056.52
2018-12-15T20:04:13.343Z,101062.96
2018-12-15T20:07:16.477Z,101060.69
2018-12-15T20:10:19.510Z,101053.01
2018-12-15T20:13:22.662Z,101058.52
2018-12-15T20:16:25.754Z,101057.09
2018-12-15T20:19:32.203Z,101051.48
2018-12-15T20:22:35.329Z,101050.34
2018-12-15T20:25:38.388Z,101042.59
2018-12-15T20:28:42.662Z,101039.33
2018-12-15T20:31:45.719Z,101043.23
2018-12-15T20:34:48.802Z,101036.19
2018-12-15T20:37:51.967Z,101031.84
2018-12-15T20:40:54.969Z,101033.46
2018-12-15T20:44:00.222Z,101029.45
2018-12-15T20:47:06.478Z,101026.33
2018-12-15T20:50:10.607Z,101021.13
2018-12-15T20:53:13.791Z,101015.62
2018-12-15T20:56:17.966Z,101008.38
2018-12-15T20:59:21.111Z,101006.48
2018-12-15T21:02:24.201Z,101002.31
2018-12-15T21:05:27.291Z,100996.24
2018-12-15T21:08:30.489Z,100992.25
2018-12-15T21:11:33.655Z,100989.58
2018-12-15T21:14:36.796Z,100987.70
2018-12-15T21:17:41.934Z,100975.05
2018-12-15T21:20:45.173Z,100978.03
2018-12-15T21:23:48.389Z,100975.92
2018-12-15T21:26:51.375Z,100970.98
2018-12-15T21:29:54.643Z,100970.80
2018-12-15T21:33:04.093Z,100967.60
2018-12-15T21:36:07.619Z,100961.33
2018-12-15T21:39:11.027Z,100952.81
2018-12-15T21:42:15.217Z,100945.77
2018-12-15T21:45:18.422Z,100947.09
2018-12-15T21:48:22.541Z,100936.02
2018-12-15T21:51:25.527Z,100932.50
2018-12-15T21:54:29.651Z,100931.58
2018-12-15T21:57:32.803Z,100925.99
2018-12-15T22:00:35.927Z,100928.92
2018-12-15T22:03:39.019Z,100923.03
2018-12-15T22:06:42.070Z,100920.69
2018-12-15T22:09:46.167Z,100916.80
2018-12-15T22:12:51.105Z,100912.41
2018-12-15T22:15:54.407Z,100909.02
2018-12-15T22:18:58.040Z,100892.69
2018-12-15T22:22:03.249Z,100881.70
2018-12-15T22:25:09.301Z,100881.13
2018-12-15T22:28:12.874Z,100870.89
2018-12-15T22:31:16.072Z,100874.70
2018-12-15T22:34:19.773Z,100874.32
2018-12-15T22:37:22.819Z,100870.52
2018-12-15T22:40:26.011Z,100871.48
2018-12-15T22:43:29.522Z,100867.19
2018-12-15T22:46:33.617Z,100867.87
2018-12-15T22:49:37.565Z,100861.62
2018-12-15T22:52:48.617Z,100853.47
2018-12-15T22:55:52.119Z,100849.67
2018-12-15T22:58:55.947Z,100849.11
2018-12-15T23:01:59.599Z,100845.13
2018-12-15T23:05:03.172Z,100848.53
2018-12-15T23:08:08.593Z,100838.28
2018-12-15T23:11:12.339Z,100842.85
2018-12-15T23:14:16.473Z,100840.11
2018-12-15T23:17:20.309Z,100840.39
2018-12-15T23:20:23.861Z,100827.40
2018-12-15T23:23:27.866Z,100826.94
2018-12-15T23:26:33.078Z,100817.93
2018-12-15T23:29:36.489Z,100805.52
2018-12-15T23:32:39.747Z,100809.69
2018-12-15T23:35:42.997Z,100802.28
2018-12-15T23:38:46.235Z,100802.28
2018-12-15T23:41:49.609Z,100800.94
2018-12-15T23:44:53.028Z,100790.91
2018-12-15T23:47:56.183Z,100786.16
2018-12-15T23:50:59.438Z,100785.59
2018-12-15T23:54:03.513Z,100776.61
2018-12-15T23:57:07.915Z,100768.91
